Time;durP1;ratioP1;P1;durP2;ratioP2;P2;SDS_P1;SDS_P2;PMS_P1;PMS_P2;Temp;Humidity;BMP_temperature;BMP_pressure;BME280_temperature;BME280_humidity;BME280_pressure;Samples;Min_cycle;Max_cycle;Signal;HPM_P1;HPM_P2
2022/11/21 00:08:02;;;;;;;;;;;;;;;17.85;40.03;96279.44;5133090;27;20461;-30
2022/11/21 00:22:51;;;;;;;;;;;;;;;17.84;40.11;96275.19;5154866;27;19917;-31
2022/11/21 00:37:50;;;;;;;;;;;;;;;17.86;39.98;96286.44;5155266;27;19917;-30
2022/11/21 00:52:51;;;;;;;;;;;;;;;17.82;39.84;96269.41;5138806;27;20374;-31
2022/11/21 01:07:52;;;;;;;;;;;;;;;17.84;39.81;96266.97;5138558;27;20366;-32
2022/11/21 01:22:53;;;;;;;;;;;;;;;17.85;39.92;96254.75;5138110;27;20068;-30
2022/11/21 01:37:53;;;;;;;;;;;;;;;17.78;39.77;96235.97;5158438;27;19925;-30
2022/11/21 01:52:54;;;;;;;;;;;;;;;17.73;39.69;96234.66;5158180;27;20343;-31
2022/11/21 02:07:55;;;;;;;;;;;;;;;17.89;39.17;96241.59;5158027;27;19930;-31
2022/11/21 02:22:55;;;;;;;;;;;;;;;17.75;39.45;96223.22;5137140;27;20401;-31
2022/11/21 02:37:57;;;;;;;;;;;;;;;17.81;39.05;96251.44;5116169;28;20282;-30
2022/11/21 02:52:58;;;;;;;;;;;;;;;17.80;38.61;96252.72;5120225;27;19914;-30
2022/11/21 02:55:24;;;;;;;;;;;;;;;17.73;38.81;96250.34;5136568;27;19907;-32
2022/11/21 03:38:00;;;;;;;;;;;;;;;17.73;38.66;96222.94;5156173;27;19925;-31
2022/11/21 03:53:01;;;;;;;;;;;;;;;17.69;38.56;96222.38;5156004;27;19914;-32
2022/11/21 04:08:01;;;;;;;;;;;;;;;17.62;39.19;96229.00;5155842;27;19914;-30
2022/11/21 04:23:02;;;;;;;;;;;;;;;17.66;39.17;96231.56;5134932;27;19913;-30
2022/11/21 04:38:03;;;;;;;;;;;;;;;17.63;39.45;96235.22;5134624;28;19961;-30
2022/11/21 04:53:04;;;;;;;;;;;;;;;17.59;39.60;96232.69;5134718;28;19960;-30
2022/11/21 04:55:30;;;;;;;;;;;;;;;17.62;39.42;96222.75;5133598;28;19952;-30
2022/11/21 05:38:06;;;;;;;;;;;;;;;17.62;39.91;96217.25;5158539;27;19921;-30
2022/11/21 05:53:08;;;;;;;;;;;;;;;17.60;39.95;96221.25;5158750;27;19914;-30
2022/11/21 06:08:08;;;;;;;;;;;;;;;17.55;40.35;96251.34;5137428;27;20036;-31
2022/11/21 06:23:08;;;;;;;;;;;;;;;17.52;40.36;96257.75;5134275;27;19998;-30
2022/11/21 06:38:12;;;;;;;;;;;;;;;17.53;40.38;96249.06;5152813;27;19926;-31
2022/11/21 06:53:10;;;;;;;;;;;;;;;17.56;40.53;96252.81;5154898;27;19918;-32
2022/11/21 07:08:18;;;;;;;;;;;;;;;17.52;40.62;96274.97;5140440;27;19949;-31
2022/11/21 07:23:20;;;;;;;;;;;;;;;17.52;40.80;96296.91;5112652;28;19938;-30
2022/11/21 07:38:28;;;;;;;;;;;;;;;17.45;40.95;96307.50;5114679;28;19962;-31
2022/11/21 07:53:30;;;;;;;;;;;;;;;17.38;41.20;96311.38;5114533;28;19919;-30
2022/11/21 08:08:32;;;;;;;;;;;;;;;17.53;41.04;96328.59;5118960;27;19968;-30
2022/11/21 08:10:57;;;;;;;;;;;;;;;17.48;41.16;96340.19;5155261;27;19915;-32
2022/11/21 08:25:36;;;;;;;;;;;;;;;17.57;40.97;96356.53;5155401;27;20316;-31
2022/11/21 08:40:12;;;;;;;;;;;;;;;17.56;41.17;96354.28;5154914;27;19922;-31
2022/11/21 08:54:48;;;;;;;;;;;;;;;16.85;42.10;96356.03;5155140;27;19913;-32
2022/11/21 08:57:13;;;;;;;;;;;;;;;16.53;41.50;96340.44;5153898;27;19982;-29
2022/11/21 09:08:46;;;;;;;;;;;;;;;17.52;40.49;96368.19;5157632;27;19914;-29
2022/11/21 09:23:23;;;;;;;;;;;;;;;17.57;40.26;96381.22;5158901;27;20266;-29
2022/11/21 09:38:19;;;;;;;;;;;;;;;17.22;40.55;96377.63;5155963;27;19982;-30
2022/11/21 09:53:20;;;;;;;;;;;;;;;17.41;40.84;96365.28;5158451;27;20369;-29
2022/11/21 10:08:21;;;;;;;;;;;;;;;17.37;40.88;96334.53;5158062;27;19914;-29
2022/11/21 10:23:22;;;;;;;;;;;;;;;17.53;41.19;96320.34;5158019;27;20020;-29
2022/11/21 10:38:22;;;;;;;;;;;;;;;17.44;42.07;96309.47;5157370;27;19957;-30
2022/11/21 11:08:51;;;;;;;;;;;;;;;17.55;43.46;96290.47;5156451;27;19938;-30
2022/11/21 11:23:28;;;;;;;;;;;;;;;17.48;43.98;96259.94;5156713;27;19929;-29
2022/11/21 11:38:26;;;;;;;;;;;;;;;17.30;44.71;96236.25;5156318;27;19922;-29
2022/11/21 11:53:29;;;;;;;;;;;;;;;17.16;45.19;96221.34;5156357;27;19913;-30
2022/11/21 12:08:27;;;;;;;;;;;;;;;17.25;44.83;96215.00;5155830;27;19952;-29
2022/11/21 12:23:29;;;;;;;;;;;;;;;17.51;44.35;96198.66;5132352;27;19915;-30
2022/11/21 12:26:12;;;;;;;;;;;;;;;17.50;44.38;96195.19;5132800;27;19937;-29
2022/11/21 12:56:10;;;;;;;;;;;;;;;17.68;44.10;96177.00;5134862;27;19964;-29
2022/11/21 13:23:32;;;;;;;;;;;;;;;17.67;44.04;96154.31;5155080;27;20012;-29
2022/11/21 13:25:57;;;;;;;;;;;;;;;17.63;43.90;96152.97;5155200;27;19947;-29
2022/11/21 13:40:35;;;;;;;;;;;;;;;17.39;44.75;96150.41;5143455;27;19932;-29
2022/11/21 13:55:31;;;;;;;;;;;;;;;17.58;44.38;96157.88;5155663;27;20503;-30
2022/11/21 14:10:17;;;;;;;;;;;;;;;17.31;45.00;96128.09;5154938;27;20003;-29
2022/11/21 14:24:55;;;;;;;;;;;;;;;17.40;44.14;96119.03;5154967;27;19914;-29
2022/11/21 14:39:33;;;;;;;;;;;;;;;17.17;43.82;96102.28;5154904;27;19960;-29
2022/11/21 15:09:24;;;;;;;;;;;;;;;17.37;43.71;96082.34;5153710;27;20021;-30
2022/11/21 15:24:21;;;;;;;;;;;;;;;17.52;44.00;96066.59;5153918;27;20373;-29
2022/11/21 15:26:46;;;;;;;;;;;;;;;17.55;44.19;96064.88;5135618;27;19994;-29
2022/11/21 15:29:22;;;;;;;;;;;;;;;17.47;44.29;96061.78;5135988;27;20045;-29
2022/11/21 15:40:57;;;;;;;;;;;;;;;17.54;44.64;96053.16;5154019;27;20018;-29
2022/11/21 15:43:35;;;;;;;;;;;;;;;17.65;44.58;96040.84;5135809;27;19918;-31
2022/11/21 16:10:23;;;;;;;;;;;;;;;17.81;44.69;95990.88;5152545;27;19926;-30
2022/11/21 16:25:00;;;;;;;;;;;;;;;17.80;44.95;95978.41;5152842;27;20468;-29
2022/11/21 16:39:37;;;;;;;;;;;;;;;17.80;44.87;95992.13;5148916;27;19971;-29
2022/11/21 16:54:14;;;;;;;;;;;;;;;17.76;45.28;95992.34;5152763;27;19990;-29
2022/11/21 17:09:17;;;;;;;;;;;;;;;17.78;45.33;95991.84;5130730;27;19975;-29
2022/11/21 17:24:19;;;;;;;;;;;;;;;17.70;45.93;95972.31;5133523;27;19922;-31
2022/11/21 17:26:45;;;;;;;;;;;;;;;17.76;45.70;95959.44;5136114;27;19915;-29
2022/11/21 17:38:47;;;;;;;;;;;;;;;17.78;46.05;95950.72;5135096;27;20020;-30
2022/11/21 17:53:46;;;;;;;;;;;;;;;17.85;46.06;95944.78;5135318;27;19918;-29
2022/11/21 18:08:48;;;;;;;;;;;;;;;17.80;46.33;95920.81;5134508;27;20415;-29
2022/11/21 18:23:48;;;;;;;;;;;;;;;17.83;46.52;95884.16;5157882;27;19914;-29
2022/11/21 18:38:49;;;;;;;;;;;;;;;17.32;51.29;95871.97;5155448;27;20374;-30
2022/11/21 18:53:50;;;;;;;;;;;;;;;18.34;48.35;95869.53;5134036;27;19918;-31
2022/11/21 19:08:52;;;;;;;;;;;;;;;18.48;47.65;95840.41;5154155;27;19914;-30
2022/11/21 19:11:18;;;;;;;;;;;;;;;18.52;47.58;95829.97;5154534;27;19919;-30
2022/11/21 19:13:44;;;;;;;;;;;;;;;18.52;47.67;95827.22;5155098;27;19954;-30
2022/11/21 19:25:18;;;;;;;;;;;;;;;18.64;47.29;95798.56;5154145;27;19914;-30
2022/11/21 19:27:43;;;;;;;;;;;;;;;18.64;47.10;95802.06;5154336;27;19910;-30
2022/11/21 19:39:42;;;;;;;;;;;;;;;18.75;46.99;95757.41;5153527;27;19961;-31
2022/11/21 20:09:33;;;;;;;;;;;;;;;18.65;48.34;95712.94;5132312;27;19930;-30
2022/11/21 20:24:13;;;;;;;;;;;;;;;18.77;48.18;95675.25;5132524;27;20274;-30
2022/11/21 20:38:57;;;;;;;;;;;;;;;18.75;49.06;95691.47;5152262;27;19933;-32
2022/11/21 20:41:24;;;;;;;;;;;;;;;18.69;49.37;95684.47;5134763;27;20005;-31
2022/11/21 20:56:01;;;;;;;;;;;;;;;18.63;50.67;95662.50;5152652;27;20664;-31
2022/11/21 21:25:52;;;;;;;;;;;;;;;18.39;52.17;95634.72;5138604;27;19915;-30
2022/11/21 21:55:42;;;;;;;;;;;;;;;18.23;52.47;95576.56;5137593;27;20120;-32
2022/11/21 22:40:48;;;;;;;;;;;;;;;18.04;52.43;95457.56;5136840;27;19966;-29
2022/11/21 22:55:24;;;;;;;;;;;;;;;17.82;52.84;95388.97;5156062;27;19921;-30
2022/11/21 23:41:44;;;;;;;;;;;;;;;16.86;54.83;95223.00;5132653;27;19923;-29
2022/11/21 23:56:21;;;;;;;;;;;;;;;15.49;58.51;95159.84;5155951;27;20064;-30
